Time;durP1;ratioP1;P1;durP2;ratioP2;P2;SDS_P1;SDS_P2;PMS_P1;PMS_P2;Temp;Humidity;BMP_temperature;BMP_pressure;BME280_temperature;BME280_humidity;BME280_pressure;Samples;Min_cycle;Max_cycle;Signal;HPM_P1;HPM_P2
2023/04/19 00:00:42;;;;;;;45.35;23.55;;;8.60;99.90;;;;;;5005407;28;20405;-76
2023/04/19 00:03:09;;;;;;;41.15;22.05;;;8.60;99.90;;;;;;5006495;28;20034;-76
2023/04/19 00:05:37;;;;;;;45.92;23.45;;;8.60;99.90;;;;;;5000281;28;20523;-76
2023/04/19 00:08:03;;;;;;;41.38;22.35;;;8.50;99.90;;;;;;5001766;28;20041;-76
2023/04/19 00:10:29;;;;;;;43.88;23.42;;;8.50;99.90;;;;;;5000770;28;20088;-76
2023/04/19 00:12:54;;;;;;;45.47;22.85;;;8.50;99.90;;;;;;4999732;28;20501;-77
2023/04/19 00:15:20;;;;;;;45.83;23.00;;;8.40;99.90;;;;;;5001351;28;20053;-77
2023/04/19 00:17:46;;;;;;;41.13;22.05;;;8.40;99.90;;;;;;5000448;28;20042;-77
2023/04/19 00:20:12;;;;;;;54.05;25.23;;;8.40;99.90;;;;;;5000666;28;20545;-76
2023/04/19 00:22:38;;;;;;;44.97;23.23;;;8.40;99.90;;;;;;5001880;28;20786;-77
2023/04/19 00:25:04;;;;;;;44.22;23.10;;;8.40;99.90;;;;;;5000508;28;20480;-76
2023/04/19 00:27:31;;;;;;;49.03;23.83;;;8.40;99.90;;;;;;5001105;28;20412;-76
2023/04/19 00:29:56;;;;;;;50.13;24.23;;;8.30;99.90;;;;;;4980717;28;20034;-76
2023/04/19 00:32:22;;;;;;;39.83;22.00;;;8.30;99.90;;;;;;4996186;28;20489;-77
2023/04/19 00:34:48;;;;;;;53.72;25.77;;;8.20;99.90;;;;;;5001908;28;20026;-76
2023/04/19 00:37:13;;;;;;;45.92;23.60;;;8.20;99.90;;;;;;4999985;28;20038;-76
2023/04/19 00:39:39;;;;;;;49.17;25.10;;;8.20;99.90;;;;;;5000121;28;20521;-77
2023/04/19 00:42:05;;;;;;;54.00;25.23;;;8.20;99.90;;;;;;4995354;28;20686;-76
2023/04/19 00:44:30;;;;;;;52.80;24.83;;;8.20;99.90;;;;;;5000095;28;20022;-76
2023/04/19 00:46:56;;;;;;;52.50;26.23;;;8.20;99.90;;;;;;4999387;28;20121;-77
2023/04/19 00:49:23;;;;;;;43.67;24.20;;;8.20;99.90;;;;;;4998976;28;20225;-76
2023/04/19 00:51:49;;;;;;;60.10;27.05;;;8.10;99.90;;;;;;4997418;28;20119;-76
2023/04/19 00:54:16;;;;;;;54.47;26.20;;;8.10;99.90;;;;;;5000471;28;20025;-77
2023/04/19 00:56:43;;;;;;;46.67;24.95;;;8.10;99.90;;;;;;4999528;28;20029;-76
2023/04/19 00:59:08;;;;;;;52.33;25.75;;;8.10;99.90;;;;;;4999105;28;20032;-76
2023/04/19 01:01:34;;;;;;;51.63;26.45;;;8.00;99.90;;;;;;4999111;28;20038;-76
2023/04/19 01:04:01;;;;;;;53.25;26.38;;;8.10;99.90;;;;;;4998327;28;20266;-76
2023/04/19 01:06:28;;;;;;;53.95;27.00;;;8.10;99.90;;;;;;4998678;28;20516;-76
2023/04/19 01:08:54;;;;;;;51.55;25.50;;;8.00;99.90;;;;;;5000392;28;20320;-77
2023/04/19 01:11:21;;;;;;;49.13;25.80;;;8.10;99.90;;;;;;5000131;28;20128;-77
2023/04/19 01:13:47;;;;;;;50.35;26.15;;;8.00;99.90;;;;;;4999362;28;20026;-76
2023/04/19 01:16:13;;;;;;;62.67;27.70;;;8.10;99.90;;;;;;4997814;28;20064;-76
2023/04/19 01:18:39;;;;;;;56.22;28.08;;;8.10;99.90;;;;;;5001654;28;20167;-77
2023/04/19 01:21:06;;;;;;;51.08;27.05;;;8.20;99.90;;;;;;5014318;28;20025;-76
2023/04/19 01:23:32;;;;;;;45.10;25.95;;;8.30;99.90;;;;;;4995430;28;20473;-76
2023/04/19 01:25:57;;;;;;;52.17;26.88;;;8.30;99.90;;;;;;4996432;28;20065;-77
2023/04/19 01:28:23;;;;;;;54.35;26.75;;;8.30;99.90;;;;;;5015708;28;20136;-76
2023/04/19 01:30:52;;;;;;;56.55;27.08;;;8.40;99.90;;;;;;4997024;28;20026;-77
2023/04/19 01:33:22;;;;;;;52.90;26.35;;;8.50;99.90;;;;;;5003058;28;20035;-76
2023/04/19 01:35:48;;;;;;;55.47;27.45;;;8.50;99.90;;;;;;4998786;28;20029;-76
2023/04/19 01:38:14;;;;;;;53.13;26.65;;;8.60;99.90;;;;;;5019145;28;20041;-76
2023/04/19 01:40:40;;;;;;;52.58;25.83;;;8.60;99.90;;;;;;5012098;28;20130;-77
2023/04/19 01:43:06;;;;;;;51.13;25.88;;;8.70;99.90;;;;;;4999280;28;20088;-76
2023/04/19 01:45:32;;;;;;;51.25;25.80;;;8.70;99.90;;;;;;5012462;28;20476;-76
2023/04/19 01:48:00;;;;;;;56.45;26.77;;;8.70;99.90;;;;;;4998412;28;20160;-76
2023/04/19 01:50:26;;;;;;;49.47;26.13;;;8.70;99.90;;;;;;4988173;28;20018;-77
2023/04/19 01:52:51;;;;;;;53.17;26.55;;;8.80;99.90;;;;;;4996597;28;20055;-76
2023/04/19 01:55:17;;;;;;;53.47;27.00;;;8.80;99.90;;;;;;4996860;28;20080;-76
2023/04/19 01:57:43;;;;;;;51.72;26.30;;;8.90;99.90;;;;;;4993827;28;20504;-77
2023/04/19 02:00:10;;;;;;;53.22;25.42;;;8.90;99.90;;;;;;4992764;28;20150;-76
2023/04/19 02:02:37;;;;;;;47.63;26.42;;;8.90;99.90;;;;;;4996028;28;20424;-76
2023/04/19 02:05:06;;;;;;;45.17;25.95;;;9.00;99.90;;;;;;5011163;28;20188;-76
2023/04/19 02:07:32;;;;;;;46.95;26.88;;;9.00;99.90;;;;;;4994259;28;20454;-76
2023/04/19 02:10:00;;;;;;;45.25;25.88;;;9.10;99.90;;;;;;4994966;28;20148;-76
2023/04/19 02:12:32;;;;;;;45.40;25.88;;;9.10;99.90;;;;;;4993382;28;20053;-77
2023/04/19 02:15:00;;;;;;;54.75;26.38;;;9.20;99.90;;;;;;4976426;28;20105;-77
2023/04/19 02:17:26;;;;;;;46.00;25.17;;;9.20;99.90;;;;;;4987208;28;20646;-77
2023/04/19 02:19:52;;;;;;;46.38;26.90;;;9.30;99.90;;;;;;5040473;22;20075;-80
2023/04/19 02:22:18;;;;;;;50.28;26.50;;;9.30;99.90;;;;;;5045733;28;20078;-81
2023/04/19 02:24:44;;;;;;;42.38;24.63;;;9.30;99.90;;;;;;5069058;28;20506;-80
2023/04/19 02:27:10;;;;;;;43.20;25.00;;;9.30;99.90;;;;;;5062227;28;20111;-80
2023/04/19 02:29:37;;;;;;;45.75;26.38;;;9.40;99.90;;;;;;5046185;28;20059;-81
2023/04/19 02:32:04;;;;;;;46.58;25.92;;;9.40;99.90;;;;;;5057756;28;20044;-80
2023/04/19 02:34:31;;;;;;;47.08;25.58;;;9.40;99.90;;;;;;5028288;28;20106;-79
2023/04/19 02:36:56;;;;;;;50.30;26.77;;;9.50;99.90;;;;;;5057731;28;20024;-80
2023/04/19 02:39:22;;;;;;;47.20;24.98;;;9.50;99.90;;;;;;5065835;28;20108;-80
2023/04/19 02:41:48;;;;;;;48.10;25.05;;;9.50;99.90;;;;;;5066333;28;20031;-79
2023/04/19 02:44:13;;;;;;;45.88;25.65;;;9.60;99.90;;;;;;5062635;28;20931;-80
2023/04/19 02:46:39;;;;;;;47.15;26.20;;;9.60;99.90;;;;;;5060062;28;20616;-79
2023/04/19 02:49:05;;;;;;;48.15;26.00;;;9.50;99.90;;;;;;5078322;28;20102;-79
2023/04/19 02:51:30;;;;;;;50.55;26.05;;;9.60;99.90;;;;;;5064173;28;20032;-81
2023/04/19 02:53:56;;;;;;;49.05;25.15;;;9.50;99.90;;;;;;5045813;28;20033;-80
2023/04/19 02:56:22;;;;;;;43.28;25.25;;;9.60;99.90;;;;;;5076491;28;20063;-80
2023/04/19 02:58:47;;;;;;;46.55;25.40;;;9.60;99.90;;;;;;5063561;28;20033;-81
2023/04/19 03:01:13;;;;;;;46.22;25.35;;;9.60;99.90;;;;;;5052178;28;20024;-80
2023/04/19 03:03:39;;;;;;;49.10;26.35;;;9.50;99.90;;;;;;5084256;28;20123;-80
2023/04/19 03:06:04;;;;;;;46.17;26.63;;;9.50;99.90;;;;;;5082519;28;20419;-80
2023/04/19 03:08:30;;;;;;;46.83;25.63;;;9.50;99.90;;;;;;5081400;28;20033;-81
2023/04/19 03:10:56;;;;;;;49.08;26.42;;;9.50;99.90;;;;;;5042228;28;20052;-80
2023/04/19 03:13:21;;;;;;;45.13;25.45;;;9.50;99.90;;;;;;5058311;28;20036;-80
2023/04/19 03:15:47;;;;;;;49.35;25.10;;;9.50;99.90;;;;;;5053250;28;20211;-79
2023/04/19 03:18:13;;;;;;;47.13;25.38;;;9.50;99.90;;;;;;5045655;28;20029;-80
2023/04/19 03:20:38;;;;;;;50.40;27.40;;;9.50;99.90;;;;;;5064256;28;20515;-80
2023/04/19 03:23:04;;;;;;;49.65;26.42;;;9.50;99.90;;;;;;5026582;28;20117;-80
2023/04/19 03:25:30;;;;;;;49.78;26.08;;;9.50;99.90;;;;;;5063430;28;20443;-79
2023/04/19 03:27:55;;;;;;;44.78;26.90;;;9.50;99.90;;;;;;5046781;28;20062;-80
2023/04/19 03:30:21;;;;;;;52.65;28.20;;;9.40;99.90;;;;;;5062691;28;20373;-80
2023/04/19 03:32:47;;;;;;;49.47;27.95;;;9.50;99.90;;;;;;5046148;28;20086;-80
2023/04/19 03:35:13;;;;;;;53.03;28.77;;;9.50;99.90;;;;;;5048944;28;20103;-81
2023/04/19 03:37:38;;;;;;;44.00;26.27;;;9.60;99.90;;;;;;5062713;28;20890;-80
2023/04/19 03:40:05;;;;;;;49.60;27.58;;;9.60;99.90;;;;;;5063764;28;20490;-78
2023/04/19 03:42:31;;;;;;;49.25;26.77;;;9.60;99.90;;;;;;5063782;28;20324;-80
2023/04/19 03:44:56;;;;;;;49.45;27.63;;;9.60;99.90;;;;;;5045101;28;20082;-79
2023/04/19 03:47:22;;;;;;;47.13;27.90;;;9.60;99.90;;;;;;5063627;28;20056;-80
2023/04/19 03:49:48;;;;;;;46.22;29.02;;;9.60;99.90;;;;;;5055318;28;20127;-80
2023/04/19 03:52:13;;;;;;;48.38;27.73;;;9.60;99.90;;;;;;5070059;28;20118;-81
2023/04/19 03:54:39;;;;;;;50.53;29.55;;;9.60;99.90;;;;;;5046326;28;20025;-80
2023/04/19 03:57:04;;;;;;;56.15;28.45;;;9.60;99.90;;;;;;5064330;28;20108;-80
2023/04/19 03:59:30;;;;;;;50.03;28.45;;;9.60;99.90;;;;;;5043544;28;20029;-81
2023/04/19 04:01:56;;;;;;;51.60;27.92;;;9.60;99.90;;;;;;5052653;28;20021;-80
2023/04/19 04:04:22;;;;;;;49.65;27.50;;;9.60;99.90;;;;;;5064459;28;20032;-81
2023/04/19 04:06:47;;;;;;;49.75;27.00;;;9.60;99.90;;;;;;5079126;28;20051;-81
2023/04/19 04:09:13;;;;;;;49.80;27.25;;;9.60;99.90;;;;;;5064025;28;20017;-80
2023/04/19 04:11:38;;;;;;;45.13;27.70;;;9.60;99.90;;;;;;5048030;28;20044;-80
2023/04/19 04:14:04;;;;;;;49.45;27.73;;;9.60;99.90;;;;;;5084055;28;20039;-80
2023/04/19 04:16:30;;;;;;;44.15;27.65;;;9.50;99.90;;;;;;5051828;28;20143;-79
2023/04/19 04:18:55;;;;;;;51.45;28.80;;;9.40;99.90;;;;;;5065951;28;20048;-80
2023/04/19 04:21:23;;;;;;;48.80;28.50;;;9.40;99.90;;;;;;5066859;28;20039;-80
2023/04/19 04:23:48;;;;;;;51.83;28.45;;;9.50;99.90;;;;;;5051990;28;20039;-79
2023/04/19 04:26:14;;;;;;;51.70;28.88;;;9.40;99.90;;;;;;5073009;28;20722;-80
2023/04/19 04:28:40;;;;;;;49.97;28.38;;;9.50;99.90;;;;;;5078940;28;20035;-80
2023/04/19 04:31:05;;;;;;;55.38;28.50;;;9.50;99.90;;;;;;5066508;28;20052;-81
2023/04/19 04:33:31;;;;;;;44.03;26.88;;;9.50;99.90;;;;;;5046125;28;20040;-80
2023/04/19 04:35:57;;;;;;;46.63;28.40;;;9.60;99.90;;;;;;5057236;28;20477;-81
2023/04/19 04:38:23;;;;;;;47.13;27.10;;;9.60;99.90;;;;;;5059023;28;20020;-80
2023/04/19 04:40:52;;;;;;;51.50;27.63;;;9.60;99.90;;;;;;5060263;28;20040;-80
2023/04/19 04:43:22;;;;;;;45.70;26.70;;;9.60;99.90;;;;;;5067573;28;20059;-80
2023/04/19 04:45:48;;;;;;;45.72;26.73;;;9.50;99.90;;;;;;5049811;28;20055;-80
2023/04/19 04:48:15;;;;;;;45.58;26.77;;;9.60;99.90;;;;;;5067698;28;20036;-79
2023/04/19 04:50:40;;;;;;;43.75;26.98;;;9.60;99.90;;;;;;5048578;28;20029;-80
2023/04/19 04:53:06;;;;;;;48.85;26.73;;;9.60;99.90;;;;;;5066135;28;20074;-79
2023/04/19 04:55:33;;;;;;;47.83;27.77;;;9.60;99.90;;;;;;5066664;28;20040;-79
2023/04/19 04:57:58;;;;;;;42.60;25.45;;;9.60;99.90;;;;;;5060005;28;20050;-79
2023/04/19 05:00:24;;;;;;;46.03;26.75;;;9.60;99.90;;;;;;5075378;28;20021;-81
2023/04/19 05:02:50;;;;;;;51.47;26.42;;;9.60;99.90;;;;;;5057951;28;20644;-81
2023/04/19 05:05:15;;;;;;;43.55;25.40;;;9.60;99.90;;;;;;5057200;28;20052;-79
2023/04/19 05:07:41;;;;;;;45.63;26.50;;;9.60;99.90;;;;;;5047246;28;20085;-81
2023/04/19 05:10:07;;;;;;;46.90;25.58;;;9.60;99.90;;;;;;5085501;28;20115;-80
2023/04/19 05:12:33;;;;;;;44.63;25.73;;;9.60;99.90;;;;;;5064895;28;20081;-80
2023/04/19 05:14:58;;;;;;;48.42;27.45;;;9.50;99.90;;;;;;5075465;28;20024;-79
2023/04/19 05:17:24;;;;;;;43.22;24.77;;;9.60;99.90;;;;;;5074489;28;20701;-79
2023/04/19 05:19:50;;;;;;;44.20;25.67;;;9.60;99.90;;;;;;5066457;28;20048;-81
2023/04/19 05:22:16;;;;;;;42.33;24.90;;;9.60;99.90;;;;;;5061542;28;20197;-81
2023/04/19 05:24:41;;;;;;;46.35;24.77;;;9.70;99.90;;;;;;5066785;28;20039;-80
2023/04/19 05:27:08;;;;;;;42.90;25.55;;;9.70;99.90;;;;;;5064063;28;20406;-81
2023/04/19 05:29:33;;;;;;;41.35;24.75;;;9.70;99.90;;;;;;5047049;28;20124;-81
2023/04/19 05:31:59;;;;;;;38.97;23.63;;;9.70;99.90;;;;;;5064468;28;20120;-80
2023/04/19 05:34:25;;;;;;;42.33;23.33;;;9.80;99.90;;;;;;5073298;28;20163;-80
2023/04/19 05:36:50;;;;;;;40.72;22.92;;;9.80;99.90;;;;;;5084749;28;20124;-80
2023/04/19 05:39:16;;;;;;;39.42;23.20;;;9.90;99.90;;;;;;5066418;28;20020;-81
2023/04/19 05:41:42;;;;;;;37.95;23.63;;;9.90;99.90;;;;;;5048089;28;20028;-81
2023/04/19 05:44:08;;;;;;;40.80;23.42;;;9.90;99.90;;;;;;5064582;28;20021;-81
2023/04/19 05:46:33;;;;;;;42.70;23.80;;;9.90;99.90;;;;;;5066169;28;20894;-81
2023/04/19 05:48:59;;;;;;;38.25;22.60;;;9.90;99.90;;;;;;5066739;28;20036;-79
2023/04/19 05:51:24;;;;;;;37.95;22.42;;;10.00;99.90;;;;;;5046191;28;20094;-80
2023/04/19 05:53:50;;;;;;;36.88;23.27;;;10.00;99.90;;;;;;5065147;28;20020;-80
2023/04/19 05:56:16;;;;;;;37.50;22.80;;;10.10;99.90;;;;;;5047585;28;20082;-80
2023/04/19 05:58:41;;;;;;;42.20;23.08;;;10.10;99.90;;;;;;5064276;28;20020;-81
2023/04/19 06:01:07;;;;;;;38.05;22.10;;;10.20;99.90;;;;;;5054729;28;20051;-81
2023/04/19 06:03:33;;;;;;;34.85;22.52;;;10.30;99.90;;;;;;5046954;28;20054;-80
2023/04/19 06:05:59;;;;;;;39.35;21.75;;;10.40;99.90;;;;;;5058060;28;20411;-81
2023/04/19 06:08:24;;;;;;;37.45;22.33;;;10.60;99.90;;;;;;5055255;28;20062;-80
2023/04/19 06:10:50;;;;;;;34.38;21.35;;;10.80;99.90;;;;;;5062035;28;20020;-81
2023/04/19 06:13:16;;;;;;;38.75;21.35;;;10.90;99.90;;;;;;5064046;28;20029;-79
2023/04/19 06:15:42;;;;;;;34.30;22.02;;;11.10;99.90;;;;;;5064134;28;20046;-81
2023/04/19 06:18:10;;;;;;;36.95;20.75;;;11.10;99.90;;;;;;5046783;28;20374;-80
2023/04/19 06:20:37;;;;;;;36.53;21.88;;;11.10;99.90;;;;;;5072101;28;20055;-81
2023/04/19 06:23:02;;;;;;;33.88;20.65;;;11.10;99.90;;;;;;5072734;28;20036;-79
2023/04/19 06:25:28;;;;;;;35.10;21.42;;;11.40;99.90;;;;;;5063437;28;20373;-80
2023/04/19 06:27:54;;;;;;;34.47;21.08;;;11.40;99.90;;;;;;5060406;28;20024;-80
2023/04/19 06:30:19;;;;;;;31.73;21.05;;;11.50;99.90;;;;;;5062971;28;20060;-80
2023/04/19 06:32:45;;;;;;;34.40;21.65;;;11.80;99.90;;;;;;5065554;28;20044;-80
2023/04/19 06:35:11;;;;;;;31.17;20.33;;;11.90;99.90;;;;;;5063784;28;20127;-81
2023/04/19 06:37:36;;;;;;;33.10;20.80;;;12.10;99.90;;;;;;5062978;28;20067;-80
2023/04/19 06:40:04;;;;;;;32.33;19.40;;;12.50;99.90;;;;;;5063072;28;20107;-80
2023/04/19 06:42:29;;;;;;;30.45;19.48;;;12.80;99.90;;;;;;5064633;28;20481;-80
2023/04/19 06:44:56;;;;;;;30.92;19.08;;;13.30;99.90;;;;;;5040235;28;20060;-80
2023/04/19 06:47:22;;;;;;;26.23;18.02;;;13.80;99.20;;;;;;5061750;28;20100;-82
2023/04/19 06:49:47;;;;;;;25.48;17.30;;;14.30;95.50;;;;;;5058553;28;20034;-81
2023/04/19 06:52:13;;;;;;;30.58;18.05;;;15.00;92.60;;;;;;5056359;28;20109;-82
2023/04/19 06:54:39;;;;;;;27.35;17.65;;;15.80;82.70;;;;;;5057070;28;20039;-82
2023/04/19 06:57:04;;;;;;;26.02;17.27;;;15.60;86.40;;;;;;5059060;28;20069;-82
2023/04/19 06:59:31;;;;;;;25.92;17.50;;;16.30;81.60;;;;;;5063423;28;20103;-81
2023/04/19 07:01:57;;;;;;;22.15;16.00;;;16.80;75.80;;;;;;5065633;28;20086;-81
2023/04/19 07:04:24;;;;;;;23.73;16.58;;;17.00;70.60;;;;;;5055785;28;20376;-80
2023/04/19 07:06:49;;;;;;;23.80;16.65;;;16.70;72.40;;;;;;5066641;28;20041;-81
2023/04/19 07:09:15;;;;;;;24.75;16.20;;;17.00;74.30;;;;;;5065892;28;20039;-81
2023/04/19 07:11:41;;;;;;;21.95;15.70;;;17.00;69.10;;;;;;5063045;28;20056;-82
2023/04/19 07:14:06;;;;;;;22.35;15.90;;;17.20;68.30;;;;;;5069141;28;20058;-81
2023/04/19 07:16:32;;;;;;;24.25;17.15;;;18.40;60.90;;;;;;5066450;28;20462;-81
2023/04/19 07:18:58;;;;;;;22.05;15.30;;;18.60;57.10;;;;;;5038313;28;20051;-82
2023/04/19 07:21:27;;;;;;;23.88;15.35;;;18.90;55.00;;;;;;5062052;28;20029;-82
2023/04/19 07:23:53;;;;;;;20.70;15.52;;;19.50;52.00;;;;;;5043295;28;20028;-81
2023/04/19 07:26:19;;;;;;;24.52;15.43;;;18.70;53.90;;;;;;5043788;28;20479;-82
2023/04/19 07:28:45;;;;;;;24.65;16.38;;;18.00;55.20;;;;;;5064775;28;20075;-82
2023/04/19 07:31:15;;;;;;;23.42;15.15;;;17.10;68.50;;;;;;5054175;28;20447;-82
2023/04/19 07:33:42;;;;;;;23.88;15.98;;;17.40;69.50;;;;;;5057883;28;20032;-81
2023/04/19 07:36:07;;;;;;;21.75;16.50;;;17.20;68.40;;;;;;5082087;28;20048;-80
2023/04/19 07:38:33;;;;;;;24.13;16.05;;;17.00;68.80;;;;;;5046856;28;20044;-82
2023/04/19 07:40:59;;;;;;;24.73;15.98;;;16.50;74.50;;;;;;5060121;28;20039;-82
2023/04/19 07:43:25;;;;;;;21.92;15.73;;;16.20;72.60;;;;;;5045872;28;20476;-82
2023/04/19 07:45:51;;;;;;;21.27;15.13;;;16.70;73.90;;;;;;5046201;28;20950;-82
2023/04/19 07:48:17;;;;;;;19.40;13.65;;;18.50;60.00;;;;;;5041709;28;20441;-81
2023/04/19 07:50:43;;;;;;;20.52;13.88;;;20.40;52.50;;;;;;5048598;28;20198;-82
2023/04/19 07:53:08;;;;;;;16.98;12.77;;;22.40;45.50;;;;;;5063061;28;20029;-81
2023/04/19 07:55:34;;;;;;;17.27;13.18;;;24.20;42.60;;;;;;5050138;28;20032;-81
2023/04/19 07:58:01;;;;;;;17.63;13.02;;;25.60;39.50;;;;;;5071908;28;20033;-82
2023/04/19 08:00:28;;;;;;;16.13;13.32;;;25.30;36.70;;;;;;5067810;28;20115;-82
2023/04/19 08:02:55;;;;;;;17.63;13.27;;;25.30;36.70;;;;;;5052433;28;20039;-81
2023/04/19 08:05:21;;;;;;;18.35;13.35;;;25.30;35.70;;;;;;5076832;28;20030;-81
2023/04/19 08:07:47;;;;;;;16.55;12.48;;;24.90;37.30;;;;;;5068405;28;20032;-81
2023/04/19 08:10:13;;;;;;;15.48;12.00;;;26.10;36.90;;;;;;5066778;28;20025;-82
2023/04/19 08:12:40;;;;;;;12.68;10.85;;;28.00;34.80;;;;;;5045563;28;20131;-82
2023/04/19 08:15:07;;;;;;;12.95;11.07;;;28.80;32.70;;;;;;5063909;28;20086;-82
2023/04/19 08:17:33;;;;;;;13.50;11.35;;;29.50;30.80;;;;;;5066445;28;20039;-82
2023/04/19 08:19:59;;;;;;;15.15;11.60;;;29.30;30.70;;;;;;5067595;28;20044;-82
2023/04/19 08:22:25;;;;;;;16.10;11.23;;;28.10;31.20;;;;;;5048163;28;20048;-82
2023/04/19 08:24:51;;;;;;;14.90;11.05;;;27.70;32.30;;;;;;5045133;28;20097;-81
2023/04/19 08:27:17;;;;;;;15.05;10.52;;;27.90;32.00;;;;;;5062043;28;20040;-82
2023/04/19 08:29:43;;;;;;;15.25;10.77;;;29.70;31.90;;;;;;5058658;28;20021;-82
2023/04/19 08:32:11;;;;;;;10.98;9.05;;;31.20;29.20;;;;;;5057794;28;20506;-82
2023/04/19 08:34:38;;;;;;;11.13;9.60;;;32.70;28.80;;;;;;5064842;28;20028;-82
2023/04/19 08:37:04;;;;;;;14.40;9.68;;;32.20;26.70;;;;;;5056584;28;20494;-82
2023/04/19 08:39:31;;;;;;;11.35;9.13;;;30.70;28.70;;;;;;5052687;28;20567;-83
2023/04/19 08:42:05;;;;;;;12.13;10.43;;;30.10;29.20;;;;;;5041360;28;20044;-82
2023/04/19 08:44:32;;;;;;;14.05;9.60;;;29.50;30.00;;;;;;5040522;28;20035;-82
2023/04/19 08:47:00;;;;;;;12.38;9.48;;;29.80;30.20;;;;;;5062850;28;20027;-82
2023/04/19 08:49:29;;;;;;;13.73;9.88;;;29.10;30.80;;;;;;5061909;28;20074;-83
2023/04/19 08:51:57;;;;;;;13.68;10.25;;;28.70;31.20;;;;;;5061413;28;20909;-82
2023/04/19 08:54:23;;;;;;;12.68;10.07;;;28.70;31.00;;;;;;5060118;28;20021;-82
2023/04/19 08:56:49;;;;;;;11.18;9.70;;;28.50;30.70;;;;;;5048439;28;20059;-85
2023/04/19 08:59:14;;;;;;;10.50;8.93;;;27.70;31.10;;;;;;5087950;28;20064;-83
2023/04/19 09:01:40;;;;;;;11.80;10.27;;;28.40;32.00;;;;;;5074706;28;20059;-82
2023/04/19 09:04:07;;;;;;;13.55;10.80;;;27.10;31.90;;;;;;5087704;28;20471;-81
2023/04/19 09:06:39;;;;;;;12.45;9.75;;;25.00;34.80;;;;;;5067246;28;20032;-81
2023/04/19 09:09:24;;;;;;;12.00;10.10;;;25.90;35.20;;;;;;5068010;28;20036;-82
2023/04/19 09:11:49;;;;;;;11.00;8.80;;;27.50;32.70;;;;;;5034025;28;20028;-81
2023/04/19 09:14:17;;;;;;;10.10;7.40;;;28.10;30.90;;;;;;5079196;28;20071;-81
2023/04/19 09:16:44;;;;;;;9.70;8.65;;;28.20;32.10;;;;;;5055172;28;20025;-82
2023/04/19 09:19:15;;;;;;;11.02;8.80;;;28.30;30.70;;;;;;5065263;28;20040;-82
2023/04/19 09:21:41;;;;;;;10.30;8.65;;;28.10;31.40;;;;;;5054026;28;20054;-80
2023/04/19 09:24:07;;;;;;;9.23;8.02;;;27.50;30.60;;;;;;5056244;28;20483;-81
2023/04/19 09:26:33;;;;;;;10.15;8.50;;;27.80;33.20;;;;;;5056201;28;20032;-82
2023/04/19 09:29:06;;;;;;;10.90;8.07;;;29.40;29.40;;;;;;5057940;28;20028;-81
2023/04/19 09:31:35;;;;;;;11.82;8.52;;;29.80;29.90;;;;;;5050648;28;20036;-82
2023/04/19 09:34:14;;;;;;;11.05;9.48;;;28.70;30.00;;;;;;5038289;28;20036;-82
2023/04/19 09:36:40;;;;;;;12.15;8.57;;;25.30;31.90;;;;;;5066517;28;20040;-81
2023/04/19 09:39:06;;;;;;;13.27;9.48;;;23.60;38.30;;;;;;5055449;28;20063;-80
2023/04/19 09:41:32;;;;;;;13.40;9.50;;;22.90;40.90;;;;;;5084993;28;20040;-81
2023/04/19 09:44:14;;;;;;;12.15;9.18;;;22.30;40.50;;;;;;5076870;28;20032;-82
2023/04/19 09:46:41;;;;;;;13.00;9.73;;;22.10;42.00;;;;;;5078886;28;20028;-81
2023/04/19 09:49:16;;;;;;;10.13;8.35;;;21.90;41.20;;;;;;5066136;28;20020;-80
2023/04/19 09:51:46;;;;;;;13.88;10.15;;;21.60;43.30;;;;;;5073158;28;20104;-80
2023/04/19 09:54:14;;;;;;;11.82;9.88;;;20.40;44.10;;;;;;5078690;28;20016;-80
2023/04/19 09:56:40;;;;;;;11.48;8.98;;;19.40;48.90;;;;;;5070110;28;20442;-82
2023/04/19 09:59:07;;;;;;;13.57;9.77;;;19.10;50.60;;;;;;5063799;28;20112;-80
2023/04/19 10:01:37;;;;;;;12.27;9.55;;;18.60;54.30;;;;;;5082595;28;20048;-83
2023/04/19 10:04:08;;;;;;;12.93;9.87;;;18.20;55.30;;;;;;5075881;28;20639;-81
2023/04/19 10:06:35;;;;;;;14.93;9.73;;;17.90;56.30;;;;;;5066115;28;20612;-81
2023/04/19 10:09:05;;;;;;;16.08;10.10;;;17.80;59.10;;;;;;4374034;28;10000713;-81
2023/04/19 10:11:39;;;;;;;13.05;9.15;;;17.80;57.50;;;;;;5068892;28;20035;-82
2023/04/19 10:14:09;;;;;;;12.18;8.30;;;18.00;59.60;;;;;;5070361;28;20029;-81
2023/04/19 10:16:37;;;;;;;13.07;9.43;;;17.70;53.50;;;;;;5043534;28;20035;-82
2023/04/19 10:19:11;;;;;;;13.90;9.10;;;17.20;59.40;;;;;;5057980;28;20024;-81
2023/04/19 10:21:38;;;;;;;13.02;8.90;;;17.10;66.80;;;;;;5081217;28;20072;-82
2023/04/19 10:24:05;;;;;;;13.50;9.38;;;17.40;70.80;;;;;;5052301;28;20028;-82
2023/04/19 10:27:10;;;;;;;13.00;8.98;;;17.00;61.70;;;;;;5037618;28;20051;-82
2023/04/19 10:29:55;;;;;;;11.90;8.40;;;16.80;63.90;;;;;;5050183;28;20031;-82
2023/04/19 10:32:21;;;;;;;11.00;8.10;;;16.20;65.20;;;;;;5054093;28;20118;-82
2023/04/19 10:34:46;;;;;;;11.73;8.02;;;16.40;75.40;;;;;;5038473;28;20025;-79
2023/04/19 10:37:15;;;;;;;10.95;8.20;;;16.90;68.10;;;;;;5054156;28;20039;-80
2023/04/19 10:39:43;;;;;;;11.15;7.05;;;17.60;58.10;;;;;;5052051;28;20108;-81
2023/04/19 10:42:08;;;;;;;11.07;6.88;;;18.50;54.50;;;;;;5045946;28;20036;-81
2023/04/19 10:44:34;;;;;;;10.10;6.35;;;20.70;47.60;;;;;;5041028;28;20039;-82
2023/04/19 10:47:00;;;;;;;11.88;6.93;;;21.60;43.90;;;;;;5057608;28;20086;-82
2023/04/19 10:49:27;;;;;;;9.73;6.60;;;22.10;42.90;;;;;;5052418;28;20131;-86
2023/04/19 10:51:53;;;;;;;10.85;7.57;;;21.30;42.80;;;;;;5050212;28;20059;-83
2023/04/19 10:54:39;;;;;;;8.88;6.65;;;20.00;44.20;;;;;;5065074;28;20056;-82
2023/04/19 10:57:06;;;;;;;11.05;7.43;;;19.40;47.50;;;;;;5063236;28;20439;-83
2023/04/19 10:59:37;;;;;;;9.77;6.65;;;18.70;48.50;;;;;;5050394;28;20830;-82
2023/04/19 11:02:24;;;;;;;8.23;6.43;;;18.40;51.20;;;;;;5065472;28;20041;-83
2023/04/19 11:04:49;;;;;;;8.13;5.68;;;18.30;50.90;;;;;;5071423;28;20040;-81
2023/04/19 11:07:20;;;;;;;10.32;6.25;;;18.20;48.40;;;;;;5051628;28;20384;-81
2023/04/19 11:09:47;;;;;;;7.40;6.00;;;18.00;53.50;;;;;;5042377;28;20446;-82
2023/04/19 11:12:12;;;;;;;8.88;6.13;;;18.90;53.90;;;;;;5053418;28;20039;-80
2023/04/19 11:14:51;;;;;;;8.93;6.40;;;19.40;47.40;;;;;;5066489;28;20029;-82
2023/04/19 11:17:25;;;;;;;9.40;6.10;;;19.40;46.50;;;;;;5059811;28;20367;-81
2023/04/19 11:19:55;;;;;;;7.53;5.88;;;19.80;47.50;;;;;;5065054;28;20045;-81
2023/04/19 11:22:24;;;;;;;7.90;5.90;;;19.20;47.00;;;;;;4700989;28;10000519;-82
2023/04/19 11:24:50;;;;;;;8.75;6.10;;;19.20;48.30;;;;;;5049011;28;20131;-83
2023/04/19 11:27:16;;;;;;;7.22;5.68;;;19.60;48.10;;;;;;5063553;28;20092;-83
2023/04/19 11:29:41;;;;;;;8.57;5.18;;;21.30;44.80;;;;;;5078252;28;20028;-84
2023/04/19 11:32:07;;;;;;;10.13;5.78;;;22.30;46.80;;;;;;5072302;28;20368;-82
2023/04/19 11:34:36;;;;;;;9.90;6.20;;;21.50;42.80;;;;;;5103604;28;20388;-82
2023/04/19 11:37:02;;;;;;;8.98;6.05;;;21.30;43.40;;;;;;5087341;28;20028;-82
2023/04/19 11:39:28;;;;;;;9.98;6.65;;;19.80;46.50;;;;;;5053526;28;20039;-84
2023/04/19 11:41:53;;;;;;;10.23;6.05;;;19.00;48.90;;;;;;5063727;28;20044;-82
2023/04/19 11:44:19;;;;;;;9.25;5.82;;;18.70;49.90;;;;;;5067991;28;20698;-80
2023/04/19 11:47:02;;;;;;;9.10;5.70;;;19.10;49.50;;;;;;5080305;28;20466;-80
2023/04/19 11:49:29;;;;;;;11.00;5.72;;;19.80;48.00;;;;;;5066717;28;20020;-80
2023/04/19 11:52:00;;;;;;;9.15;5.60;;;19.80;47.80;;;;;;5049058;28;20042;-79
2023/04/19 11:54:26;;;;;;;7.13;4.88;;;20.00;51.00;;;;;;5063581;28;20104;-81
2023/04/19 11:57:03;;;;;;;7.95;4.53;;;20.50;47.90;;;;;;5065406;28;20060;-82
2023/04/19 11:59:31;;;;;;;7.38;4.60;;;20.50;47.00;;;;;;5062107;28;20112;-83
2023/04/19 12:02:07;;;;;;;6.05;4.28;;;19.80;48.50;;;;;;5066608;28;20214;-82
2023/04/19 12:04:33;;;;;;;11.50;4.60;;;19.60;50.80;;;;;;5066045;28;20029;-82
2023/04/19 12:07:01;;;;;;;8.07;4.60;;;20.10;52.90;;;;;;5064089;28;20137;-83
2023/04/19 12:09:26;;;;;;;7.63;5.15;;;20.30;48.20;;;;;;5060959;28;20120;-84
2023/04/19 12:11:52;;;;;;;6.05;4.93;;;19.80;48.90;;;;;;5067344;28;20034;-82
2023/04/19 12:14:22;;;;;;;7.35;4.85;;;19.20;51.20;;;;;;5063445;28;20376;-83
2023/04/19 12:17:04;;;;;;;7.40;5.40;;;19.40;53.70;;;;;;5078745;28;20128;-83
2023/04/19 12:19:42;;;;;;;8.70;5.43;;;19.90;51.60;;;;;;5062808;28;20040;-81
2023/04/19 12:22:15;;;;;;;9.65;5.20;;;20.20;53.50;;;;;;5063841;28;20047;-81
2023/04/19 12:24:41;;;;;;;7.03;5.43;;;19.90;49.00;;;;;;5074362;28;20028;-82
2023/04/19 12:27:07;;;;;;;7.22;4.75;;;20.70;53.40;;;;;;5082985;28;20450;-83
2023/04/19 12:29:34;;;;;;;12.10;6.80;;;21.40;48.00;;;;;;5087790;28;20435;-81
2023/04/19 12:32:00;;;;;;;12.75;7.20;;;21.50;48.50;;;;;;5068250;28;20036;-85
2023/04/19 12:34:25;;;;;;;11.75;7.80;;;20.40;47.10;;;;;;5068936;28;20107;-85